Time;durP1;ratioP1;P1;durP2;ratioP2;P2;SDS_P1;SDS_P2;PMS_P1;PMS_P2;Temp;Humidity;BMP_temperature;BMP_pressure;BME280_temperature;BME280_humidity;BME280_pressure;Samples;Min_cycle;Max_cycle;Signal;HPM_P1;HPM_P2
2022/01/12 00:00:16;;;;;;;6.75;4.55;;;;;;;4.54;63.92;98943.22;5995923;23;20594;-83
2022/01/12 00:02:42;;;;;;;6.07;3.83;;;;;;;4.45;64.38;98944.19;5995828;23;20186;-83
2022/01/12 00:05:07;;;;;;;7.40;4.57;;;;;;;4.51;64.30;98943.53;6029172;23;20170;-82
2022/01/12 00:07:33;;;;;;;7.80;4.35;;;;;;;4.54;64.45;98942.41;6029916;23;20159;-82
2022/01/12 00:09:58;;;;;;;6.53;4.13;;;;;;;4.56;64.66;98936.13;5997814;23;20890;-83
2022/01/12 00:12:26;;;;;;;6.78;4.40;;;;;;;4.55;64.04;98942.25;6029784;23;20336;-83
2022/01/12 00:14:52;;;;;;;6.93;4.45;;;;;;;4.55;64.04;98939.66;5997534;23;20649;-83
2022/01/12 00:17:17;;;;;;;7.82;4.10;;;;;;;4.54;64.19;98932.09;5996353;23;20153;-83
2022/01/12 00:19:42;;;;;;;6.93;4.07;;;;;;;4.57;63.74;98936.91;6030864;23;20193;-83
2022/01/12 00:22:08;;;;;;;4.38;3.08;;;;;;;4.52;63.41;98934.81;6030459;23;20217;-83
2022/01/12 00:25:03;;;;;;;8.15;4.15;;;;;;;4.39;64.28;98935.31;6030448;23;20113;-83
2022/01/12 00:33:14;;;;;;;8.10;3.55;;;;;;;4.42;64.15;98923.84;6000828;23;20447;-83
2022/01/12 00:35:50;;;;;;;;;;;;;;;4.08;64.87;98924.81;6033974;23;20253;-83
2022/01/12 00:38:17;;;;;;;7.43;4.30;;;;;;;4.28;64.57;98927.88;6030578;23;20168;-83
2022/01/12 00:40:47;;;;;;;6.93;4.30;;;;;;;4.33;64.31;98935.94;5972598;23;20248;-82
2022/01/12 00:43:15;;;;;;;7.72;4.88;;;;;;;4.25;64.79;98935.94;6029427;23;20235;-83
2022/01/12 00:45:45;;;;;;;9.57;6.00;;;;;;;4.21;64.36;98947.53;6029924;23;20139;-83
2022/01/12 03:11:46;;;;;;;17.70;8.50;;;;;;;2.65;67.34;98970.81;6034253;23;20178;-85
2022/01/12 03:14:11;;;;;;;12.60;7.22;;;;;;;2.62;67.66;98965.94;5973654;23;20194;-86
2022/01/12 03:16:37;;;;;;;14.15;7.32;;;;;;;2.63;66.71;98957.28;5974103;23;20080;-86
2022/01/12 03:19:03;;;;;;;10.48;5.28;;;;;;;2.60;67.09;98968.69;5973857;23;20245;-86
2022/01/12 03:21:32;;;;;;;9.85;5.20;;;;;;;2.58;66.71;98974.94;5997096;23;20257;-86
2022/01/12 03:23:58;;;;;;;9.00;4.90;;;;;;;2.65;66.35;98975.16;5973646;23;20193;-86
2022/01/12 03:26:27;;;;;;;8.50;4.32;;;;;;;2.58;66.68;98987.78;5973930;23;20239;-86
2022/01/12 03:28:54;;;;;;;12.27;6.22;;;;;;;2.59;66.95;99003.06;5997514;23;20654;-85
2022/01/12 03:31:26;;;;;;;10.40;5.90;;;;;;;2.35;66.90;99010.56;6030734;23;20324;-86
2022/01/12 03:33:59;;;;;;;10.38;6.18;;;;;;;2.48;67.36;99011.00;5996943;23;20190;-86
2022/01/12 03:36:41;;;;;;;7.35;4.70;;;;;;;2.51;67.63;99003.00;5998543;23;20298;-88
2022/01/12 03:39:12;;;;;;;9.38;4.93;;;;;;;2.43;67.41;99008.88;6010649;23;20144;-86
2022/01/12 03:41:39;;;;;;;8.52;4.78;;;;;;;2.53;67.16;98990.78;5974629;23;20292;-86
2022/01/12 03:44:07;;;;;;;8.90;4.53;;;;;;;2.45;67.07;98988.16;6031980;23;20241;-86
2022/01/12 03:46:45;;;;;;;9.70;5.05;;;;;;;2.42;66.90;98986.69;5997810;23;20237;-87
2022/01/12 03:49:11;;;;;;;9.68;4.70;;;;;;;2.41;66.77;98987.63;5974558;23;20222;-87
2022/01/12 03:51:36;;;;;;;7.38;4.95;;;;;;;2.40;67.13;98993.75;5974275;23;20586;-87
2022/01/12 03:54:02;;;;;;;6.93;3.97;;;;;;;2.42;67.38;99001.31;5973969;23;20157;-87
2022/01/12 03:56:27;;;;;;;8.30;4.88;;;;;;;2.37;67.70;99004.31;5973746;23;20240;-86
2022/01/12 03:58:53;;;;;;;9.52;4.85;;;;;;;2.35;67.25;99008.78;5973531;23;20163;-87
2022/01/12 04:01:19;;;;;;;10.25;6.50;;;;;;;2.16;68.51;99014.03;5949316;23;20528;-86
2022/01/12 04:03:50;;;;;;;12.35;6.07;;;;;;;2.16;68.47;99012.31;5949805;23;20631;-86
2022/01/12 04:08:59;;;;;;;11.48;6.13;;;;;;;2.25;68.12;99036.31;5977111;23;20179;-87
2022/01/12 04:11:25;;;;;;;15.75;9.95;;;;;;;2.24;68.43;99039.84;5949668;23;20255;-86
2022/01/12 04:13:50;;;;;;;11.13;6.05;;;;;;;2.14;68.53;99023.66;5949880;23;20321;-86
2022/01/12 04:16:16;;;;;;;10.80;5.72;;;;;;;2.20;67.81;99018.75;5950112;23;20136;-86
2022/01/12 04:18:42;;;;;;;13.82;7.22;;;;;;;2.35;68.09;99026.78;5973299;23;20177;-86
2022/01/12 04:21:09;;;;;;;14.30;7.78;;;;;;;2.31;67.32;99024.66;6006779;23;20175;-88
2022/01/12 04:23:36;;;;;;;10.25;5.50;;;;;;;2.34;67.21;99038.00;5972826;23;20183;-87
2022/01/12 04:26:09;;;;;;;10.98;5.25;;;;;;;2.30;66.66;99028.19;5983049;23;20076;-86
2022/01/12 04:28:36;;;;;;;10.25;5.05;;;;;;;2.33;66.86;99031.28;5974022;23;20164;-87
2022/01/12 04:31:02;;;;;;;9.38;5.32;;;;;;;2.32;66.54;99019.38;6006587;23;20262;-87
2022/01/12 04:33:29;;;;;;;11.70;5.60;;;;;;;2.41;66.38;99031.34;5949475;23;20520;-87
2022/01/12 04:35:56;;;;;;;8.88;5.60;;;;;;;2.22;67.22;99028.91;5949684;23;20190;-87
2022/01/12 04:38:27;;;;;;;9.27;5.47;;;;;;;2.21;67.18;99037.53;5949225;23;20654;-86
2022/01/12 04:40:52;;;;;;;10.23;5.40;;;;;;;2.21;67.23;99040.13;5949494;23;20831;-87
2022/01/12 04:43:19;;;;;;;8.88;4.75;;;;;;;2.19;67.01;99042.03;6003707;23;20195;-87
2022/01/12 04:46:38;;;;;;;9.68;6.00;;;;;;;2.19;67.72;99047.16;5970847;23;20544;-87
2022/01/12 04:48:36;;;;;;;9.85;5.82;;;;;;;2.19;67.50;99042.84;5965196;23;20271;-89
2022/01/12 04:51:02;;;;;;;10.50;5.15;;;;;;;2.16;67.78;99040.56;5973212;23;20076;-87
2022/01/12 04:53:30;;;;;;;9.50;5.38;;;;;;;2.11;67.71;99034.22;5972111;23;20261;-87
2022/01/12 04:55:56;;;;;;;9.65;5.47;;;;;;;2.22;68.04;99052.03;5973545;23;20223;-87
2022/01/12 04:58:21;;;;;;;10.52;5.38;;;;;;;2.16;67.66;99038.00;5949023;23;20199;-87
2022/01/12 05:00:51;;;;;;;9.60;5.38;;;;;;;2.20;68.02;99049.59;5949302;23;20631;-87
2022/01/12 05:13:57;;;;;;;9.57;4.88;;;;;;;2.19;66.78;99032.59;5976131;23;20266;-87
2022/01/12 05:16:24;;;;;;;10.77;5.78;;;;;;;2.27;66.93;99031.03;6000055;23;20187;-87
2022/01/12 05:18:51;;;;;;;12.05;6.03;;;;;;;2.29;66.62;99032.50;5949262;23;20213;-87
2022/01/12 05:21:18;;;;;;;10.30;5.80;;;;;;;2.29;66.12;99036.84;5972448;23;20167;-87
2022/01/12 05:23:43;;;;;;;9.30;5.97;;;;;;;2.28;65.91;99036.03;5948254;23;20191;-87
2022/01/12 05:26:09;;;;;;;10.88;5.53;;;;;;;2.35;66.09;99036.28;5949167;23;20588;-87
2022/01/12 05:28:38;;;;;;;10.15;5.47;;;;;;;2.17;65.96;99039.59;5973003;23;20174;-87
2022/01/12 05:31:04;;;;;;;10.40;6.45;;;;;;;2.18;66.86;99030.94;5972896;23;20251;-87
2022/01/12 05:33:29;;;;;;;9.52;5.60;;;;;;;2.29;65.87;99029.94;5948734;23;20250;-87
2022/01/12 05:35:57;;;;;;;9.90;5.47;;;;;;;2.29;65.67;99022.22;5949166;23;20258;-87
2022/01/12 05:38:24;;;;;;;10.73;5.30;;;;;;;2.27;65.15;99028.47;5972381;23;20160;-87
2022/01/12 05:40:55;;;;;;;10.57;5.53;;;;;;;2.24;65.22;99025.25;5972705;23;20091;-87
2022/01/12 05:43:25;;;;;;;9.98;5.68;;;;;;;2.24;65.69;99024.41;5948634;23;20341;-87
2022/01/12 05:45:53;;;;;;;9.35;5.15;;;;;;;2.24;65.60;99020.09;6006890;23;20188;-86
2022/01/12 05:50:46;;;;;;;10.88;6.25;;;;;;;2.38;65.17;99035.97;6006107;23;20310;-86
2022/01/12 05:53:12;;;;;;;10.65;5.82;;;;;;;2.13;66.43;99019.50;6005983;23;20183;-87
2022/01/12 05:55:38;;;;;;;11.93;6.88;;;;;;;2.12;66.84;99017.88;5969959;23;20010;-86
2022/01/12 05:58:03;;;;;;;11.18;6.75;;;;;;;2.01;66.15;99009.41;6001963;23;20085;-86
2022/01/12 06:00:29;;;;;;;13.43;8.20;;;;;;;2.04;66.37;99024.53;6000260;23;20002;-86
2022/01/12 06:02:55;;;;;;;12.68;8.45;;;;;;;1.97;66.79;99020.94;6031750;23;20002;-86
2022/01/12 06:05:21;;;;;;;13.70;7.95;;;;;;;1.97;66.78;99008.09;6003164;23;20080;-86
2022/01/12 06:07:50;;;;;;;16.67;9.07;;;;;;;2.03;66.62;99024.69;5979381;23;20002;-86
2022/01/12 06:10:16;;;;;;;18.02;9.18;;;;;;;1.94;66.33;99046.09;6003085;23;20097;-86
2022/01/12 06:12:42;;;;;;;17.30;10.85;;;;;;;1.87;67.05;99054.38;6034210;23;20067;-86
2022/01/12 06:15:08;;;;;;;19.50;10.13;;;;;;;1.91;67.26;99046.38;5979601;23;20021;-86
2022/01/12 06:17:34;;;;;;;18.67;10.57;;;;;;;1.94;66.71;99053.81;6003236;23;20041;-86
2022/01/12 06:20:00;;;;;;;24.80;12.63;;;;;;;1.93;67.32;99062.44;6002759;23;20862;-85
2022/01/12 06:22:26;;;;;;;23.65;13.48;;;;;;;1.95;66.67;99061.34;6003718;23;20005;-85
2022/01/12 06:24:52;;;;;;;28.65;14.80;;;;;;;1.94;66.87;99059.75;5979264;23;20773;-85
2022/01/12 06:27:20;;;;;;;21.48;11.20;;;;;;;1.96;66.93;99060.41;6004141;23;19998;-85
2022/01/12 06:32:20;;;;;;;19.85;10.05;;;;;;;1.80;66.82;99053.31;6005719;23;20650;-85
2022/01/12 06:34:46;;;;;;;17.27;9.82;;;;;;;1.72;66.21;99063.47;5980356;23;20013;-85
2022/01/12 06:37:11;;;;;;;18.00;9.25;;;;;;;1.72;66.41;99057.53;6003562;23;20141;-84
2022/01/12 06:39:37;;;;;;;17.15;9.63;;;;;;;1.69;66.88;99072.25;6003640;23;20029;-85
2022/01/12 06:42:03;;;;;;;10.05;6.57;;;;;;;1.68;67.01;99080.94;6003130;23;20179;-85
2022/01/12 06:44:28;;;;;;;11.85;7.00;;;;;;;1.65;67.85;99085.53;6024932;23;20077;-85
2022/01/12 06:46:56;;;;;;;21.65;11.10;;;;;;;1.61;67.63;99097.00;6033712;23;20004;-85
2022/01/12 06:49:22;;;;;;;200.98;96.45;;;;;;;1.59;67.61;99092.00;5979580;23;20002;-85
2022/01/12 06:51:47;;;;;;;28.52;17.65;;;;;;;1.57;67.33;99077.72;6012420;23;20064;-84
2022/01/12 06:54:14;;;;;;;20.17;11.20;;;;;;;1.52;67.43;99093.53;5988935;23;20010;-84
2022/01/12 06:56:39;;;;;;;14.90;8.13;;;;;;;1.54;68.02;99095.94;6031435;23;20008;-84
2022/01/12 06:59:06;;;;;;;15.50;7.50;;;;;;;1.55;67.79;99085.56;6039193;23;20157;-84
2022/01/12 07:01:31;;;;;;;16.02;7.47;;;;;;;1.52;67.63;99101.22;6031604;23;19997;-84
2022/01/12 07:03:57;;;;;;;12.32;7.25;;;;;;;1.59;67.53;99098.91;6032090;23;20836;-85
2022/01/12 07:06:22;;;;;;;13.10;7.05;;;;;;;1.58;67.40;99097.31;6063435;23;20006;-84
2022/01/12 07:08:48;;;;;;;13.30;6.10;;;;;;;1.64;67.44;99099.31;6055095;23;20283;-84
2022/01/12 07:11:13;;;;;;;14.57;8.07;;;;;;;1.49;67.36;99106.63;6007304;23;20698;-84
2022/01/12 07:13:39;;;;;;;21.45;11.73;;;;;;;1.36;68.17;99101.81;6029244;23;20214;-84
2022/01/12 07:16:04;;;;;;;20.98;11.43;;;;;;;1.41;68.16;99098.84;6030302;23;20019;-84
2022/01/12 07:18:30;;;;;;;22.77;11.43;;;;;;;1.45;67.79;99090.69;6011321;23;20100;-84
2022/01/12 07:20:56;;;;;;;19.98;11.20;;;;;;;1.47;67.48;99088.81;6031760;23;20001;-84
2022/01/12 07:23:22;;;;;;;20.00;9.05;;;;;;;1.47;67.26;99090.56;6061423;23;20013;-84
2022/01/12 07:25:49;;;;;;;15.25;8.48;;;;;;;1.51;67.14;99097.06;6036116;23;20709;-84
2022/01/12 07:28:14;;;;;;;15.52;7.75;;;;;;;1.43;67.57;99096.94;6007195;23;20615;-84
2022/01/12 07:30:40;;;;;;;21.67;10.77;;;;;;;1.42;67.81;99105.56;6008094;23;20005;-84
2022/01/12 07:33:05;;;;;;;16.67;10.30;;;;;;;1.48;67.92;99115.28;6040238;23;20239;-84
2022/01/12 07:35:31;;;;;;;20.25;12.02;;;;;;;1.44;67.55;99129.34;6007523;23;20002;-84
2022/01/12 07:37:56;;;;;;;19.00;11.82;;;;;;;1.32;68.05;99149.22;6030045;23;20084;-84
2022/01/12 07:40:21;;;;;;;18.02;9.75;;;;;;;1.41;68.13;99152.72;6061438;23;20008;-87
2022/01/12 07:42:47;;;;;;;13.85;7.88;;;;;;;1.47;68.47;99157.31;6006084;23;20785;-84
2022/01/12 07:45:13;;;;;;;14.57;7.13;;;;;;;1.49;67.89;99166.50;6031455;23;20016;-83
2022/01/12 07:47:38;;;;;;;11.57;6.43;;;;;;;1.55;67.83;99161.75;6006935;23;20002;-84
2022/01/12 07:50:05;;;;;;;14.20;8.80;;;;;;;1.57;67.90;99158.09;6065429;23;19997;-84
2022/01/12 07:52:31;;;;;;;18.02;7.63;;;;;;;1.56;67.92;99169.34;6007586;23;20005;-84
2022/01/12 07:54:58;;;;;;;12.90;6.80;;;;;;;1.57;68.17;99170.94;6064709;23;20558;-84
2022/01/12 07:57:23;;;;;;;13.95;6.43;;;;;;;1.51;68.13;99186.91;6040979;23;20001;-84
2022/01/12 07:59:49;;;;;;;13.75;7.72;;;;;;;1.45;68.57;99190.00;6062189;23;20134;-84
2022/01/12 08:02:14;;;;;;;19.60;12.50;;;;;;;1.37;69.49;99184.72;6062265;23;19994;-84
2022/01/12 08:04:40;;;;;;;17.50;9.60;;;;;;;1.33;69.09;99193.66;6030426;23;20009;-84
2022/01/12 08:07:07;;;;;;;20.60;13.30;;;;;;;1.30;68.74;99200.69;6007269;23;20075;-84
2022/01/12 08:09:33;;;;;;;26.60;17.63;;;;;;;1.28;68.22;99202.56;6040617;23;20009;-84
2022/01/12 08:11:58;;;;;;;20.52;14.23;;;;;;;1.26;68.79;99207.00;6030774;23;20851;-84
2022/01/12 08:14:23;;;;;;;11.85;7.57;;;;;;;1.22;68.82;99200.53;6006627;23;20001;-84
2022/01/12 08:16:49;;;;;;;9.70;5.80;;;;;;;1.18;69.67;99211.19;6030204;23;20098;-87
2022/01/12 08:19:19;;;;;;;12.45;8.18;;;;;;;1.26;69.27;99204.44;6065337;23;20012;-84
2022/01/12 08:21:45;;;;;;;15.90;7.95;;;;;;;1.36;69.19;99203.66;6008765;23;20008;-84
2022/01/12 08:24:12;;;;;;;13.45;7.25;;;;;;;1.44;69.44;99204.59;6060729;23;20009;-84
2022/01/12 08:26:38;;;;;;;15.25;7.82;;;;;;;1.46;69.31;99212.16;6062278;23;20008;-84
2022/01/12 08:29:03;;;;;;;14.23;7.82;;;;;;;1.39;69.15;99209.31;6038479;23;20636;-84
2022/01/12 08:31:29;;;;;;;14.23;7.68;;;;;;;1.49;69.47;99207.56;6030987;23;19997;-84
2022/01/12 08:33:54;;;;;;;16.02;8.27;;;;;;;1.55;69.29;99211.34;6056077;23;20001;-84
2022/01/12 08:36:20;;;;;;;14.13;7.25;;;;;;;1.62;69.25;99209.84;6065998;23;20718;-84
2022/01/12 08:38:45;;;;;;;16.40;8.05;;;;;;;1.69;69.11;99207.56;6030431;23;20001;-84
2022/01/12 08:41:11;;;;;;;30.83;13.23;;;;;;;1.65;68.68;99211.34;6064412;23;20009;-85
2022/01/12 08:43:36;;;;;;;37.00;14.32;;;;;;;1.73;69.31;99214.06;6064286;23;20028;-85
2022/01/12 08:46:02;;;;;;;41.22;16.50;;;;;;;1.81;69.29;99219.28;6062982;23;20028;-85
2022/01/12 08:48:27;;;;;;;34.47;14.73;;;;;;;1.87;69.64;99217.94;6007587;23;20048;-85
2022/01/12 08:50:53;;;;;;;41.55;14.38;;;;;;;1.89;68.79;99204.97;6064034;23;20000;-85
2022/01/12 08:53:18;;;;;;;39.33;17.13;;;;;;;1.91;69.14;99200.50;6030011;23;20005;-88
2022/01/12 08:55:43;;;;;;;24.17;12.45;;;;;;;1.95;69.26;99201.84;5976913;23;20006;-86
2022/01/12 08:58:09;;;;;;;15.98;8.80;;;;;;;2.05;68.92;99207.75;5976577;23;20021;-85
2022/01/12 09:00:35;;;;;;;16.60;9.00;;;;;;;2.06;68.85;99212.75;6001311;23;20029;-85
2022/01/12 09:03:01;;;;;;;14.82;8.50;;;;;;;2.17;68.44;99210.97;6033084;23;20073;-86
2022/01/12 09:05:27;;;;;;;16.83;8.77;;;;;;;2.19;68.38;99209.06;6009619;23;20034;-86
2022/01/12 09:07:54;;;;;;;15.63;7.65;;;;;;;2.09;67.71;99191.13;5941710;23;20097;-85
2022/01/12 09:10:19;;;;;;;15.93;8.18;;;;;;;2.26;67.79;99217.84;5977588;23;20009;-85
2022/01/12 09:12:45;;;;;;;13.50;6.18;;;;;;;2.23;67.63;99225.84;5967402;23;20265;-86
2022/01/12 09:15:15;;;;;;;9.23;5.63;;;;;;;1.98;68.09;99225.47;6004466;23;20057;-86
2022/01/12 09:17:48;;;;;;;12.50;6.47;;;;;;;2.03;67.83;99223.31;5948239;23;20235;-86
2022/01/12 09:20:16;;;;;;;10.35;5.30;;;;;;;2.10;67.63;99220.19;5995661;23;20536;-86
2022/01/12 09:22:42;;;;;;;9.45;5.65;;;;;;;2.41;67.67;99251.63;5981186;23;20282;-86
2022/01/12 09:25:08;;;;;;;11.30;6.78;;;;;;;2.39;67.54;99243.25;5981742;23;20235;-86
2022/01/12 09:27:33;;;;;;;15.80;7.45;;;;;;;2.57;67.68;99261.31;5948425;23;20195;-86
2022/01/12 09:29:59;;;;;;;13.88;7.00;;;;;;;2.50;67.31;99255.94;5948759;23;20168;-86
2022/01/12 09:32:24;;;;;;;11.52;5.63;;;;;;;2.57;67.34;99257.00;5994892;23;20279;-86
2022/01/12 09:34:50;;;;;;;10.63;5.72;;;;;;;2.67;66.25;99249.22;5948855;23;20157;-87
2022/01/12 09:37:20;;;;;;;9.55;5.93;;;;;;;2.72;66.71;99252.16;5947592;23;20685;-87
2022/01/12 09:39:46;;;;;;;9.38;4.95;;;;;;;2.67;65.97;99246.66;5972248;23;20664;-88
2022/01/12 09:42:22;;;;;;;10.15;5.05;;;;;;;2.50;65.58;99234.53;5971859;23;20254;-88
2022/01/12 09:44:50;;;;;;;6.47;4.05;;;;;;;2.81;64.82;99232.50;5969003;23;20247;-88
2022/01/12 09:47:16;;;;;;;6.93;4.28;;;;;;;2.98;64.81;99246.34;5946086;23;20269;-88
2022/01/12 09:49:50;;;;;;;7.18;4.43;;;;;;;2.83;64.01;99219.50;5972056;23;20171;-88
2022/01/12 09:52:18;;;;;;;6.60;4.32;;;;;;;3.09;63.69;99233.31;5968561;23;20179;-87
2022/01/12 09:54:44;;;;;;;5.32;3.33;;;;;;;3.15;62.25;99239.63;5983219;23;20276;-90
2022/01/12 09:57:15;;;;;;;9.30;5.68;;;;;;;3.21;62.84;99228.75;6028905;23;20075;-88
2022/01/12 09:59:42;;;;;;;9.93;5.60;;;;;;;3.29;62.52;99241.72;6007713;23;20259;-87
2022/01/12 10:02:24;;;;;;;11.05;5.68;;;;;;;3.13;62.25;99234.63;5996538;23;20170;-88
2022/01/12 10:05:00;;;;;;;9.98;5.45;;;;;;;3.23;61.86;99265.47;6006944;23;20174;-86
2022/01/12 10:07:25;;;;;;;9.55;5.00;;;;;;;3.34;62.67;99259.28;5976315;23;20182;-87
2022/01/12 10:10:14;;;;;;;9.40;4.88;;;;;;;3.18;63.18;99247.88;5998403;23;20235;-88
2022/01/12 10:12:58;;;;;;;6.63;4.07;;;;;;;3.32;62.21;99235.44;5975494;23;20593;-87
2022/01/12 10:15:30;;;;;;;6.97;4.13;;;;;;;3.41;62.30;99257.75;5976225;23;20452;-87
2022/01/12 10:18:04;;;;;;;7.32;4.10;;;;;;;3.49;61.96;99267.31;5987677;23;20182;-87
2022/01/12 10:20:42;;;;;;;6.75;3.95;;;;;;;3.55;62.61;99267.53;5998343;23;20178;-88
2022/01/12 10:23:13;;;;;;;6.40;4.28;;;;;;;3.37;61.91;99264.94;5979575;23;20608;-88
2022/01/12 10:25:40;;;;;;;7.40;4.35;;;;;;;3.62;61.26;99285.00;6018313;23;20139;-89
2022/01/12 10:28:18;;;;;;;6.72;4.00;;;;;;;3.68;61.96;99295.50;6004286;23;20143;-86
2022/01/12 10:30:58;;;;;;;6.90;3.83;;;;;;;3.66;61.86;99300.00;5984109;23;20244;-87
2022/01/12 10:33:27;;;;;;;6.47;3.88;;;;;;;3.84;60.88;99281.13;5977303;23;20561;-88
2022/01/12 10:35:55;;;;;;;7.68;4.13;;;;;;;3.82;61.30;99273.59;6000641;23;20167;-86
2022/01/12 10:38:22;;;;;;;6.75;3.85;;;;;;;3.94;61.19;99282.69;6007464;23;20186;-85
2022/01/12 10:40:56;;;;;;;8.13;5.07;;;;;;;3.72;60.89;99267.69;6026896;23;20038;-86
2022/01/12 10:43:34;;;;;;;6.68;3.88;;;;;;;3.97;60.73;99270.47;6001130;23;20084;-88
2022/01/12 10:46:05;;;;;;;8.75;4.60;;;;;;;4.00;61.08;99259.84;6034223;23;20199;-85
2022/01/12 10:48:38;;;;;;;8.88;5.93;;;;;;;3.89;60.89;99263.47;5992812;23;20201;-87
2022/01/12 10:51:07;;;;;;;6.38;3.78;;;;;;;3.67;61.47;99251.88;6050982;23;20166;-88
2022/01/12 10:53:34;;;;;;;12.63;6.88;;;;;;;3.84;60.79;99234.75;6027201;23;20174;-88
2022/01/12 10:56:03;;;;;;;7.00;4.63;;;;;;;4.06;60.47;99249.75;5969415;23;20145;-87
2022/01/12 10:58:29;;;;;;;7.28;4.32;;;;;;;4.01;61.19;99235.69;5969398;23;20207;-87
2022/01/12 11:00:57;;;;;;;7.15;3.83;;;;;;;4.12;61.17;99236.25;5961189;23;20243;-88
2022/01/12 11:03:30;;;;;;;6.35;4.18;;;;;;;4.10;60.27;99217.56;5954025;23;20270;-88
2022/01/12 11:05:56;;;;;;;7.60;4.00;;;;;;;4.37;59.77;99246.72;6015181;23;20730;-87
2022/01/12 11:08:24;;;;;;;12.55;6.60;;;;;;;4.19;60.06;99223.56;5986430;23;20282;-85
2022/01/12 11:10:49;;;;;;;8.30;4.60;;;;;;;4.35;59.64;99250.41;5973526;23;20175;-86
2022/01/12 11:13:16;;;;;;;6.72;3.97;;;;;;;4.46;59.96;99252.72;6023164;23;20009;-86
2022/01/12 11:15:42;;;;;;;8.73;5.07;;;;;;;4.41;59.78;99252.38;6004418;23;20072;-86
2022/01/12 11:18:08;;;;;;;6.05;3.90;;;;;;;4.43;59.13;99245.28;6006837;23;20210;-86
2022/01/12 11:20:33;;;;;;;5.63;4.07;;;;;;;4.60;59.45;99252.16;5965912;23;20163;-86
2022/01/12 11:23:12;;;;;;;8.30;4.68;;;;;;;4.55;58.60;99256.97;5966200;23;20180;-85
2022/01/12 11:25:57;;;;;;;7.70;4.22;;;;;;;4.68;58.73;99254.78;5957228;23;20199;-87
2022/01/12 11:28:27;;;;;;;6.93;3.72;;;;;;;4.66;58.87;99255.88;5960969;23;20575;-86
2022/01/12 11:30:54;;;;;;;5.40;3.58;;;;;;;4.81;58.84;99256.91;5996483;23;20347;-85
2022/01/12 11:33:29;;;;;;;8.05;4.28;;;;;;;4.52;58.15;99256.47;6055235;23;20598;-86
2022/01/12 11:35:54;;;;;;;5.05;3.58;;;;;;;4.78;58.55;99254.66;6022117;23;20204;-85
2022/01/12 11:38:30;;;;;;;5.10;3.17;;;;;;;4.62;58.50;99257.97;5964218;23;20552;-86
2022/01/12 11:41:07;;;;;;;6.38;3.83;;;;;;;4.84;58.21;99259.19;6050157;23;20179;-87
2022/01/12 11:43:41;;;;;;;6.40;3.38;;;;;;;4.91;57.22;99248.25;5988278;23;20171;-86
2022/01/12 11:46:10;;;;;;;6.45;2.97;;;;;;;4.91;57.34;99264.53;5966350;23;20564;-85
2022/01/12 11:48:46;;;;;;;5.30;3.20;;;;;;;4.77;57.96;99252.22;5998328;23;20476;-86
2022/01/12 11:51:13;;;;;;;6.03;3.40;;;;;;;4.95;58.16;99257.28;5994539;23;20006;-85
2022/01/12 11:53:53;;;;;;;5.32;3.63;;;;;;;4.88;57.93;99265.66;6000132;23;20096;-85
2022/01/12 11:56:25;;;;;;;4.95;3.20;;;;;;;5.12;57.55;99255.56;6022500;23;20326;-85
2022/01/12 11:58:56;;;;;;;5.18;3.05;;;;;;;4.85;58.02;99260.00;5962982;23;20611;-85
2022/01/12 12:01:22;;;;;;;4.55;3.08;;;;;;;4.99;57.77;99259.41;6011069;23;20187;-86
2022/01/12 12:03:58;;;;;;;5.15;3.35;;;;;;;5.20;57.08;99253.81;6018528;23;20128;-85
2022/01/12 12:06:24;;;;;;;5.28;3.60;;;;;;;5.14;57.82;99243.31;5993813;23;20666;-86
2022/01/12 12:09:07;;;;;;;5.68;3.40;;;;;;;5.14;57.42;99244.13;6019811;23;20210;-85
2022/01/12 12:11:33;;;;;;;4.75;3.55;;;;;;;5.28;56.78;99239.28;6020258;23;20133;-84
2022/01/12 12:14:09;;;;;;;6.43;3.22;;;;;;;5.05;57.55;99237.31;5959722;23;20280;-85
2022/01/12 12:16:35;;;;;;;6.75;3.85;;;;;;;4.88;58.27;99249.34;5985212;23;20599;-85
2022/01/12 12:19:03;;;;;;;6.22;4.28;;;;;;;4.91;58.11;99238.72;5989015;23;20183;-85
2022/01/12 12:21:29;;;;;;;7.00;4.07;;;;;;;5.03;56.99;99224.56;5999773;23;20275;-85
2022/01/12 12:24:06;;;;;;;8.80;4.82;;;;;;;5.03;58.04;99223.75;5981438;23;20534;-85
2022/01/12 12:26:32;;;;;;;8.30;4.45;;;;;;;5.06;57.85;99216.50;5964781;23;20267;-85
2022/01/12 12:28:58;;;;;;;6.25;3.83;;;;;;;5.14;56.49;99227.81;5968191;23;20156;-85
2022/01/12 12:31:25;;;;;;;6.32;4.03;;;;;;;5.24;58.10;99225.88;5961689;23;20186;-85
2022/01/12 12:34:05;;;;;;;6.93;4.38;;;;;;;5.10;57.47;99211.03;5976785;23;20366;-85
2022/01/12 12:36:31;;;;;;;5.13;3.10;;;;;;;5.51;57.44;99216.25;6007222;23;20262;-85
2022/01/12 12:39:11;;;;;;;6.75;3.65;;;;;;;5.40;56.85;99225.91;5971393;23;20211;-85
2022/01/12 12:41:44;;;;;;;5.90;4.32;;;;;;;5.39;57.32;99226.88;5974938;23;20242;-85
2022/01/12 12:44:39;;;;;;;6.65;3.97;;;;;;;5.16;57.58;99218.16;6016863;23;20579;-85
2022/01/12 12:47:09;;;;;;;7.10;4.00;;;;;;;5.51;56.67;99216.25;5982332;23;20160;-85
2022/01/12 12:49:49;;;;;;;5.40;3.88;;;;;;;5.40;56.68;99218.19;5987278;23;20179;-85
2022/01/12 12:52:31;;;;;;;6.22;4.10;;;;;;;5.39;57.69;99201.03;5950482;23;20178;-86
2022/01/12 12:54:59;;;;;;;6.43;4.30;;;;;;;5.38;57.93;99199.44;5965847;23;20681;-85
2022/01/12 12:57:27;;;;;;;7.10;4.30;;;;;;;5.39;57.67;99201.03;6045505;23;20071;-85
2022/01/12 13:00:24;;;;;;;5.53;3.97;;;;;;;5.24;56.87;99203.47;6001997;23;20183;-85
2022/01/12 13:02:51;;;;;;;11.02;5.57;;;;;;;5.46;57.22;99203.00;6046300;23;20347;-85
2022/01/12 13:05:30;;;;;;;7.20;3.97;;;;;;;5.49;57.12;99192.34;6005847;23;20132;-86
2022/01/12 13:07:56;;;;;;;7.55;4.57;;;;;;;5.60;56.53;99199.75;5971570;23;20155;-85
2022/01/12 13:10:23;;;;;;;7.35;4.40;;;;;;;5.49;56.35;99195.72;6021895;23;20143;-85
2022/01/12 13:12:56;;;;;;;6.38;3.88;;;;;;;5.51;55.63;99198.16;6001544;23;20282;-85
2022/01/12 13:15:41;;;;;;;6.28;4.32;;;;;;;5.37;56.96;99208.16;6032181;23;20599;-86
2022/01/12 13:18:07;;;;;;;7.57;4.28;;;;;;;5.41;56.52;99214.59;6014674;23;20139;-85
2022/01/12 13:23:21;;;;;;;9.75;4.57;;;;;;;5.51;57.13;99211.88;6008050;23;20177;-86
2022/01/12 13:25:48;;;;;;;7.20;4.43;;;;;;;5.56;57.30;99219.16;5999881;23;20552;-85
2022/01/12 13:28:13;;;;;;;6.47;4.03;;;;;;;5.63;56.52;99225.28;6041949;23;20256;-85
2022/01/12 13:30:48;;;;;;;8.18;5.10;;;;;;;5.53;56.42;99225.44;5997368;23;20222;-85
2022/01/12 13:33:14;;;;;;;8.75;4.97;;;;;;;5.71;56.18;99216.75;6030174;23;20249;-85
2022/01/12 13:35:41;;;;;;;7.88;4.43;;;;;;;5.73;56.00;99222.53;6005633;23;20277;-85
2022/01/12 13:38:07;;;;;;;8.25;4.50;;;;;;;5.74;56.71;99224.97;6003842;23;20186;-85
2022/01/12 13:40:39;;;;;;;9.18;4.68;;;;;;;5.54;57.19;99234.81;5988688;23;20222;-86
2022/01/12 13:43:05;;;;;;;6.82;4.10;;;;;;;5.62;56.95;99226.25;5969666;23;20122;-85
2022/01/12 13:45:41;;;;;;;6.13;3.75;;;;;;;5.45;56.24;99228.03;6007606;23;20297;-86
2022/01/12 13:48:13;;;;;;;7.35;3.67;;;;;;;5.36;56.86;99210.91;6013235;23;20177;-85
2022/01/12 13:50:41;;;;;;;8.10;5.30;;;;;;;5.44;57.48;99224.63;6027022;23;20135;-85
2022/01/12 13:53:06;;;;;;;13.25;5.97;;;;;;;5.59;55.60;99222.22;6031360;23;20230;-85
2022/01/12 13:55:33;;;;;;;6.72;3.65;;;;;;;5.56;56.24;99221.75;6003689;23;20134;-85
2022/01/12 13:58:09;;;;;;;5.78;3.90;;;;;;;5.51;57.16;99235.13;5992739;23;20649;-86
2022/01/12 14:00:36;;;;;;;6.28;4.00;;;;;;;5.63;57.15;99227.88;6045887;23;20667;-84
2022/01/12 14:03:12;;;;;;;5.82;3.80;;;;;;;5.43;56.90;99228.19;5991621;23;20299;-85
2022/01/12 14:05:39;;;;;;;7.03;4.07;;;;;;;5.57;56.40;99238.84;6064949;23;20072;-85
2022/01/12 14:08:13;;;;;;;5.45;3.95;;;;;;;5.60;56.50;99243.69;6011704;23;20187;-87
2022/01/12 14:10:51;;;;;;;5.35;3.30;;;;;;;5.60;55.95;99248.84;6009322;23;20201;-86
2022/01/12 14:13:17;;;;;;;5.32;3.75;;;;;;;5.65;57.01;99243.22;5980201;23;20213;-85
2022/01/12 14:15:43;;;;;;;5.55;3.70;;;;;;;5.51;57.50;99242.88;6004426;23;20197;-86
2022/01/12 14:18:18;;;;;;;4.80;3.30;;;;;;;5.37;56.94;99236.56;6039845;23;20108;-85
2022/01/12 14:20:45;;;;;;;7.10;3.97;;;;;;;5.53;56.22;99247.88;6024433;23;20250;-85
2022/01/12 14:23:11;;;;;;;7.13;4.30;;;;;;;5.64;56.86;99250.16;6006085;23;20445;-85
2022/01/12 14:25:45;;;;;;;7.53;4.57;;;;;;;5.47;57.54;99244.19;6008314;23;20233;-85
2022/01/12 14:28:16;;;;;;;7.63;3.85;;;;;;;5.44;56.88;99234.97;6037538;23;20264;-85
2022/01/12 14:30:42;;;;;;;9.45;5.97;;;;;;;5.62;56.34;99247.75;6014108;23;20629;-85
2022/01/12 14:33:08;;;;;;;9.18;5.90;;;;;;;5.50;57.20;99245.63;6014310;23;20002;-85